createdAt,value
2023-01-04T00:01:34.918Z,81.33
2023-01-04T00:04:03.125Z,81.57
2023-01-04T00:06:31.179Z,81.49
2023-01-04T00:08:59.182Z,81.92
2023-01-04T00:11:28.297Z,82.15
2023-01-04T00:14:01.810Z,82.29
2023-01-04T00:16:30.481Z,82.14
2023-01-04T00:18:58.838Z,82.13
2023-01-04T00:21:29.369Z,82.37
2023-01-04T00:24:01.586Z,82.27
2023-01-04T00:26:32.477Z,82.12
2023-01-04T00:29:06.551Z,82.20
2023-01-04T00:31:35.697Z,82.34
2023-01-04T00:34:05.704Z,82.30
2023-01-04T00:36:34.679Z,82.35
2023-01-04T00:39:14.368Z,82.41
2023-01-04T00:42:00.096Z,82.35
2023-01-04T00:44:30.514Z,82.40
2023-01-04T00:47:00.566Z,82.37
2023-01-04T00:49:30.378Z,82.35
2023-01-04T00:51:58.639Z,82.38
2023-01-04T00:54:27.034Z,82.39
2023-01-04T00:56:55.102Z,82.62
2023-01-04T00:59:23.417Z,82.49
2023-01-04T01:01:51.940Z,82.36
2023-01-04T01:04:22.987Z,82.39
2023-01-04T01:06:52.020Z,82.41
2023-01-04T01:09:23.249Z,82.54
2023-01-04T01:11:53.223Z,82.61
2023-01-04T01:14:24.411Z,82.66
2023-01-04T01:16:56.554Z,82.65
2023-01-04T01:19:28.742Z,82.74
2023-01-04T01:21:57.862Z,82.81
2023-01-04T01:24:27.382Z,82.81
2023-01-04T01:26:56.687Z,82.79
2023-01-04T01:29:25.245Z,82.87
2023-01-04T01:31:53.698Z,82.92
2023-01-04T01:34:22.241Z,82.96
2023-01-04T01:36:50.320Z,82.82
2023-01-04T01:39:18.692Z,82.87
2023-01-04T01:41:46.825Z,82.96
2023-01-04T01:44:44.099Z,82.91
2023-01-04T01:47:25.317Z,82.83
2023-01-04T01:49:54.144Z,82.83
2023-01-04T01:52:27.796Z,82.84
2023-01-04T01:55:00.958Z,82.71
2023-01-04T01:57:34.083Z,82.86
2023-01-04T02:00:10.099Z,83.00
2023-01-04T02:05:52.900Z,83.02
2023-01-04T02:08:24.331Z,83.01
2023-01-04T02:10:52.509Z,82.88
2023-01-04T02:13:50.662Z,83.07
2023-01-04T02:16:44.719Z,82.98
2023-01-04T02:19:33.770Z,83.16
2023-01-04T02:22:38.320Z,83.29
2023-01-04T02:25:44.818Z,83.22
2023-01-04T02:28:36.309Z,83.25
2023-01-04T02:31:22.746Z,83.33
2023-01-04T02:34:12.984Z,83.52
2023-01-04T02:37:00.615Z,83.60
2023-01-04T02:39:57.595Z,83.64
2023-01-04T02:43:16.065Z,83.64
2023-01-04T02:45:58.764Z,83.70
2023-01-04T02:48:53.849Z,83.41
2023-01-04T02:51:27.194Z,83.17
2023-01-04T02:53:58.350Z,82.96
2023-01-04T02:56:36.550Z,82.88
2023-01-04T02:59:39.031Z,82.98
2023-01-04T03:02:54.362Z,83.25
2023-01-04T03:06:01.890Z,83.22
2023-01-04T03:08:51.695Z,83.11
2023-01-04T03:11:38.621Z,82.91
2023-01-04T03:14:30.906Z,82.80
2023-01-04T03:17:07.295Z,82.91
2023-01-04T03:19:55.052Z,82.81
2023-01-04T03:22:44.813Z,82.97
2023-01-04T03:25:34.204Z,83.08
2023-01-04T03:28:21.247Z,83.20
2023-01-04T03:31:19.893Z,83.20
2023-01-04T03:34:07.337Z,83.09
2023-01-04T03:36:47.220Z,83.14
2023-01-04T03:39:43.941Z,83.29
2023-01-04T03:42:42.810Z,83.19
2023-01-04T03:45:38.134Z,83.01
2023-01-04T03:48:29.171Z,82.76
2023-01-04T03:51:09.645Z,82.74
2023-01-04T03:53:45.722Z,82.79
2023-01-04T03:56:16.527Z,82.70
2023-01-04T03:58:44.730Z,82.74
2023-01-04T04:01:13.430Z,82.89
2023-01-04T04:04:00.483Z,82.87
2023-01-04T04:06:47.516Z,82.74
2023-01-04T04:09:15.776Z,82.98
2023-01-04T04:11:44.077Z,83.02
2023-01-04T04:14:12.640Z,82.98
2023-01-04T04:16:41.128Z,82.63
2023-01-04T04:19:09.454Z,82.60
2023-01-04T04:21:37.540Z,82.51
2023-01-04T04:24:06.213Z,82.60
2023-01-04T04:26:34.517Z,82.77
2023-01-04T04:29:02.496Z,82.48
2023-01-04T04:31:31.022Z,82.49
2023-01-04T04:33:59.304Z,82.58
2023-01-04T04:36:27.300Z,82.88
2023-01-04T04:38:55.469Z,82.98
2023-01-04T04:41:38.897Z,83.20
2023-01-04T04:44:25.087Z,83.20
2023-01-04T04:46:53.156Z,82.98
2023-01-04T04:49:21.272Z,82.93
2023-01-04T04:51:49.379Z,83.00
2023-01-04T04:54:20.016Z,83.26
2023-01-04T04:56:49.376Z,83.54
2023-01-04T04:59:17.619Z,83.56
2023-01-04T05:01:46.083Z,83.51
2023-01-04T05:04:16.931Z,83.42
2023-01-04T05:06:47.269Z,82.95
2023-01-04T05:09:16.397Z,82.88
2023-01-04T05:12:03.962Z,83.12
2023-01-04T05:14:32.815Z,83.43
2023-01-04T05:17:00.884Z,83.52
2023-01-04T05:19:29.166Z,83.62
2023-01-04T05:21:57.278Z,83.76
2023-01-04T05:24:25.381Z,83.80
2023-01-04T05:26:53.541Z,83.71
2023-01-04T05:29:40.238Z,83.47
2023-01-04T05:32:08.382Z,83.45
2023-01-04T05:34:36.544Z,83.35
2023-01-04T05:37:04.665Z,83.52
2023-01-04T05:39:32.969Z,83.72
2023-01-04T05:42:19.814Z,83.94
2023-01-04T05:44:47.982Z,83.94
2023-01-04T05:47:16.190Z,83.96
2023-01-04T05:49:44.577Z,84.29
2023-01-04T05:52:12.894Z,84.30
2023-01-04T05:54:41.207Z,84.55
2023-01-04T05:57:09.741Z,84.65
2023-01-04T05:59:41.731Z,84.67
2023-01-04T06:02:19.401Z,84.66
2023-01-04T06:04:54.615Z,84.79
2023-01-04T06:07:28.006Z,84.91
2023-01-04T06:09:56.723Z,84.79
2023-01-04T06:12:26.947Z,84.87
2023-01-04T06:14:55.148Z,84.79
2023-01-04T06:17:23.321Z,84.92
2023-01-04T06:19:51.384Z,84.99
2023-01-04T06:22:20.729Z,85.08
2023-01-04T06:24:48.921Z,84.95
2023-01-04T06:27:17.217Z,85.08
2023-01-04T06:29:45.376Z,85.06
2023-01-04T06:32:13.629Z,85.00
2023-01-04T06:34:41.608Z,85.06
2023-01-04T06:37:09.986Z,85.15
2023-01-04T06:39:38.416Z,85.13
2023-01-04T06:42:26.743Z,85.15
2023-01-04T06:44:54.831Z,85.10
2023-01-04T06:47:22.783Z,85.28
2023-01-04T06:49:50.876Z,85.40
2023-01-04T06:52:19.200Z,85.53
2023-01-04T06:54:47.235Z,85.61
2023-01-04T06:57:15.279Z,85.80
2023-01-04T06:59:43.479Z,85.80
2023-01-04T07:02:15.236Z,85.63
2023-01-04T07:04:44.880Z,85.89
2023-01-04T07:07:12.998Z,85.83
2023-01-04T07:09:41.098Z,85.85
2023-01-04T07:12:09.238Z,85.88
2023-01-04T07:14:37.481Z,85.95
2023-01-04T07:17:05.531Z,85.93
2023-01-04T07:19:33.945Z,86.00
2023-01-04T07:22:02.235Z,86.00
2023-01-04T07:24:30.869Z,86.16
2023-01-04T07:27:03.263Z,86.06
2023-01-04T07:29:31.446Z,86.02
2023-01-04T07:31:59.501Z,86.03
2023-01-04T07:34:28.546Z,86.01
2023-01-04T07:36:56.631Z,86.21
2023-01-04T07:39:24.598Z,86.29
2023-01-04T07:41:52.877Z,86.34
2023-01-04T07:44:25.672Z,86.37
2023-01-04T07:46:54.808Z,86.42
2023-01-04T07:49:23.004Z,86.48
2023-01-04T07:51:51.225Z,86.74
2023-01-04T07:54:19.837Z,86.77
2023-01-04T07:56:48.649Z,86.79
2023-01-04T07:59:19.614Z,86.94
2023-01-04T08:01:48.854Z,87.02
2023-01-04T08:04:17.801Z,86.88
2023-01-04T08:06:46.891Z,87.09
2023-01-04T08:09:15.235Z,87.16
2023-01-04T08:11:43.947Z,87.25
2023-01-04T08:14:12.728Z,87.30
2023-01-04T08:16:43.020Z,87.33
2023-01-04T08:19:17.455Z,87.38
2023-01-04T08:21:45.904Z,87.45
2023-01-04T08:24:19.953Z,87.44
2023-01-04T08:26:48.015Z,87.38
2023-01-04T08:29:16.636Z,87.28
2023-01-04T08:31:44.832Z,87.34
2023-01-04T08:34:13.115Z,87.24
2023-01-04T08:36:49.677Z,87.19
2023-01-04T08:39:18.241Z,87.15
2023-01-04T08:42:19.455Z,87.22
2023-01-04T08:44:41.180Z,87.26
2023-01-04T08:47:09.222Z,87.31
2023-01-04T08:49:37.285Z,87.28
2023-01-04T08:52:05.867Z,87.13
2023-01-04T08:54:33.978Z,87.17
2023-01-04T08:57:02.013Z,87.08
2023-01-04T08:59:30.344Z,87.02
2023-01-04T09:02:04.931Z,86.99
2023-01-04T09:04:33.949Z,86.88
2023-01-04T09:07:01.998Z,86.84
2023-01-04T09:09:30.544Z,86.84
2023-01-04T09:11:59.953Z,86.99
2023-01-04T09:14:28.083Z,87.03
2023-01-04T09:16:56.457Z,87.04
2023-01-04T09:19:24.872Z,86.93
2023-01-04T09:21:52.914Z,86.89
2023-01-04T09:24:21.063Z,86.87
2023-01-04T09:26:49.393Z,86.83
2023-01-04T09:29:17.591Z,86.68
2023-01-04T09:31:45.866Z,86.65
2023-01-04T09:34:16.431Z,86.79
2023-01-04T09:36:48.798Z,86.67
2023-01-04T09:39:23.189Z,86.59
2023-01-04T09:42:05.519Z,86.46
2023-01-04T09:47:43.188Z,86.20
2023-01-04T09:50:14.533Z,86.07
2023-01-04T09:52:56.348Z,86.04
2023-01-04T09:55:39.532Z,86.09
2023-01-04T09:58:20.855Z,86.04
2023-01-04T10:01:02.716Z,85.93
2023-01-04T10:03:36.736Z,85.64
2023-01-04T10:06:07.361Z,85.64
2023-01-04T10:08:35.722Z,85.60
2023-01-04T10:11:15.797Z,85.48
2023-01-04T10:14:03.063Z,85.45
2023-01-04T10:17:12.319Z,85.06
2023-01-04T10:23:05.469Z,85.07
2023-01-04T10:26:01.124Z,84.96
2023-01-04T10:28:48.558Z,84.94
2023-01-04T10:31:39.962Z,84.70
2023-01-04T10:34:28.976Z,84.52
2023-01-04T10:37:00.912Z,84.42
2023-01-04T10:39:33.469Z,84.38
2023-01-04T10:42:20.252Z,84.10
2023-01-04T10:45:03.304Z,84.17
2023-01-04T10:48:12.926Z,84.03
2023-01-04T10:51:03.544Z,83.97
2023-01-04T10:53:52.911Z,84.05
2023-01-04T10:56:40.692Z,84.13
2023-01-04T10:59:16.394Z,84.15
2023-01-04T11:01:50.632Z,84.00
2023-01-04T11:04:23.975Z,83.75
2023-01-04T11:07:31.841Z,83.83
2023-01-04T11:10:06.821Z,83.78
2023-01-04T11:12:35.137Z,83.32
2023-01-04T11:15:04.022Z,83.50
2023-01-04T11:17:32.713Z,83.45
2023-01-04T11:20:01.322Z,83.41
2023-01-04T11:22:54.240Z,83.20
2023-01-04T11:25:35.092Z,83.29
2023-01-04T11:28:07.096Z,83.02
2023-01-04T11:30:53.905Z,83.13
2023-01-04T11:33:24.083Z,82.97
2023-01-04T11:35:57.133Z,82.73
2023-01-04T11:38:27.877Z,82.70
2023-01-04T11:40:57.997Z,82.65
2023-01-04T11:43:31.444Z,82.42
2023-01-04T11:46:21.316Z,82.39
2023-01-04T11:48:49.370Z,82.35
2023-01-04T11:51:20.792Z,82.42
2023-01-04T11:53:58.000Z,82.08
2023-01-04T11:56:29.383Z,82.02
2023-01-04T11:59:09.669Z,81.98
2023-01-04T12:01:45.032Z,82.12
2023-01-04T12:04:26.455Z,81.90
2023-01-04T12:07:05.183Z,82.03
2023-01-04T12:09:33.389Z,82.15
2023-01-04T12:12:01.713Z,82.15
2023-01-04T12:14:34.717Z,82.09
2023-01-04T12:17:26.201Z,82.12
2023-01-04T12:19:56.748Z,82.13
2023-01-04T12:22:36.364Z,81.98
2023-01-04T12:25:09.287Z,81.96
2023-01-04T12:27:37.846Z,81.88
2023-01-04T12:30:08.096Z,81.70
2023-01-04T12:32:36.142Z,81.71
2023-01-04T12:35:04.424Z,81.62
2023-01-04T12:37:40.634Z,81.43
2023-01-04T12:40:45.581Z,81.48
2023-01-04T12:43:16.791Z,81.43
2023-01-04T12:45:46.171Z,81.33
2023-01-04T12:48:48.600Z,81.35
2023-01-04T12:51:33.945Z,81.22
2023-01-04T12:54:10.288Z,81.25
2023-01-04T12:57:12.594Z,81.22
2023-01-04T13:00:00.410Z,81.23
2023-01-04T13:02:32.406Z,81.16
2023-01-04T13:05:54.515Z,81.14
2023-01-04T13:07:58.445Z,80.89
2023-01-04T13:10:42.326Z,80.94
2023-01-04T13:13:29.113Z,80.81
2023-01-04T13:16:23.166Z,80.77
2023-01-04T13:18:57.148Z,80.53
2023-01-04T13:21:33.330Z,80.69
2023-01-04T13:24:15.180Z,80.67
2023-01-04T13:26:51.279Z,80.56
2023-01-04T13:29:28.091Z,80.41
2023-01-04T13:32:00.170Z,80.27
2023-01-04T13:34:36.529Z,80.28
2023-01-04T13:37:15.797Z,80.10
2023-01-04T13:39:44.895Z,79.84
2023-01-04T13:42:27.173Z,79.86
2023-01-04T13:45:19.159Z,79.96
2023-01-04T13:47:51.895Z,79.84
2023-01-04T13:50:31.923Z,79.59
2023-01-04T13:53:07.442Z,79.58
2023-01-04T13:55:38.275Z,79.52
2023-01-04T13:58:17.711Z,79.47
2023-01-04T14:00:54.935Z,79.46
2023-01-04T14:03:31.551Z,79.43
2023-01-04T14:06:11.869Z,79.46
2023-01-04T14:08:52.787Z,79.21
2023-01-04T14:11:46.780Z,79.21
2023-01-04T14:14:20.836Z,79.19
2023-01-04T14:16:50.921Z,79.18
2023-01-04T14:19:45.894Z,79.15
2023-01-04T14:22:23.058Z,79.17
2023-01-04T14:25:11.706Z,79.17
2023-01-04T14:27:42.800Z,79.19
2023-01-04T14:30:20.525Z,79.20
2023-01-04T14:32:58.924Z,79.26
2023-01-04T14:35:28.535Z,79.43
2023-01-04T14:38:03.771Z,79.59
2023-01-04T14:40:32.063Z,79.66
2023-01-04T14:43:00.216Z,79.97
2023-01-04T14:45:28.218Z,80.16
2023-01-04T14:47:56.876Z,80.19
2023-01-04T14:50:24.961Z,80.39
2023-01-04T14:52:54.476Z,80.56
2023-01-04T14:55:24.099Z,80.66
2023-01-04T14:57:52.117Z,80.80
2023-01-04T15:00:20.289Z,81.00
2023-01-04T15:02:51.077Z,81.23
2023-01-04T15:05:22.696Z,81.48
2023-01-04T15:07:50.931Z,81.66
2023-01-04T15:10:26.480Z,81.87
2023-01-04T15:12:55.157Z,82.21
2023-01-04T15:15:23.458Z,82.36
2023-01-04T15:17:51.732Z,82.50
2023-01-04T15:20:19.846Z,82.54
2023-01-04T15:22:47.945Z,82.74
2023-01-04T15:25:16.363Z,82.71
2023-01-04T15:27:44.368Z,82.69
2023-01-04T15:30:13.046Z,82.90
2023-01-04T15:32:41.797Z,82.91
2023-01-04T15:35:10.655Z,83.07
2023-01-04T15:37:38.638Z,83.10
2023-01-04T15:40:07.197Z,83.21
2023-01-04T15:42:54.096Z,83.28
2023-01-04T15:45:24.081Z,83.49
2023-01-04T15:47:52.748Z,83.65
2023-01-04T15:50:20.856Z,83.71
2023-01-04T15:52:49.171Z,83.85
2023-01-04T15:55:17.352Z,83.91
2023-01-04T15:57:45.414Z,83.95
2023-01-04T16:00:14.698Z,84.03
2023-01-04T16:02:43.156Z,84.28
2023-01-04T16:05:11.342Z,84.36
2023-01-04T16:07:39.526Z,84.51
2023-01-04T16:10:08.342Z,84.81
2023-01-04T16:12:43.040Z,85.18
2023-01-04T16:15:16.905Z,85.15
2023-01-04T16:17:45.842Z,85.54
2023-01-04T16:20:17.600Z,85.59
2023-01-04T16:22:45.881Z,85.72
2023-01-04T16:25:14.289Z,85.90
2023-01-04T16:27:44.003Z,86.08
2023-01-04T16:30:13.788Z,86.14
2023-01-04T16:32:43.758Z,86.19
2023-01-04T16:35:12.263Z,86.36
2023-01-04T16:37:40.403Z,86.32
2023-01-04T16:40:09.942Z,86.58
2023-01-04T16:42:38.307Z,86.45
2023-01-04T16:45:07.294Z,86.70
2023-01-04T16:47:43.266Z,86.80
2023-01-04T16:50:12.788Z,86.93
2023-01-04T16:52:41.238Z,87.26
2023-01-04T16:55:11.107Z,87.25
2023-01-04T16:57:39.144Z,87.27
2023-01-04T17:00:07.721Z,87.46
2023-01-04T17:02:35.914Z,87.67
2023-01-04T17:05:04.659Z,87.59
2023-01-04T17:07:33.326Z,87.60
2023-01-04T17:10:02.121Z,87.75
2023-01-04T17:12:47.513Z,87.86
2023-01-04T17:18:06.355Z,87.96
2023-01-04T17:20:34.379Z,88.01
2023-01-04T17:23:02.629Z,88.11
2023-01-04T17:25:31.384Z,88.11
2023-01-04T17:27:59.760Z,88.13
2023-01-04T17:30:28.063Z,88.06
2023-01-04T17:32:56.205Z,88.00
2023-01-04T17:35:24.338Z,87.91
2023-01-04T17:37:52.565Z,87.89
2023-01-04T17:40:23.318Z,87.85
2023-01-04T17:42:51.778Z,87.72
2023-01-04T17:45:20.343Z,87.66
2023-01-04T17:47:48.379Z,87.64
2023-01-04T17:50:17.615Z,87.53
2023-01-04T17:52:47.610Z,87.43
2023-01-04T17:55:15.712Z,87.54
2023-01-04T17:57:44.255Z,87.54
2023-01-04T18:00:14.988Z,87.52
2023-01-04T18:02:44.035Z,87.47
2023-01-04T18:05:12.848Z,87.34
2023-01-04T18:07:40.997Z,87.51
2023-01-04T18:10:20.560Z,87.52
2023-01-04T18:12:49.529Z,87.51
2023-01-04T18:15:17.692Z,87.63
2023-01-04T18:17:45.745Z,87.81
2023-01-04T18:20:24.021Z,87.83
2023-01-04T18:22:53.214Z,87.99
2023-01-04T18:25:21.374Z,87.90
2023-01-04T18:27:49.444Z,88.01
2023-01-04T18:30:17.651Z,87.94
2023-01-04T18:32:46.031Z,88.01
2023-01-04T18:35:14.192Z,88.19
2023-01-04T18:37:45.598Z,88.07
2023-01-04T18:40:13.925Z,88.14
2023-01-04T18:42:46.598Z,88.31
2023-01-04T18:45:16.190Z,88.43
2023-01-04T18:47:47.657Z,88.60
2023-01-04T18:50:17.190Z,88.46
2023-01-04T18:52:45.742Z,88.63
2023-01-04T18:55:17.092Z,88.64
2023-01-04T18:57:45.304Z,88.75
2023-01-04T19:00:14.145Z,88.81
2023-01-04T19:02:42.375Z,88.89
2023-01-04T19:05:12.368Z,89.21
2023-01-04T19:07:41.628Z,89.30
2023-01-04T19:10:09.711Z,89.30
2023-01-04T19:12:38.946Z,89.39
2023-01-04T19:15:08.667Z,89.41
2023-01-04T19:17:37.792Z,89.42
2023-01-04T19:20:06.916Z,89.62
2023-01-04T19:22:35.592Z,89.68
2023-01-04T19:25:04.022Z,89.63
2023-01-04T19:27:32.174Z,89.92
2023-01-04T19:30:01.135Z,89.97
2023-01-04T19:32:33.403Z,89.93
2023-01-04T19:35:02.583Z,90.14
2023-01-04T19:37:30.669Z,90.09
2023-01-04T19:39:58.691Z,90.18
2023-01-04T19:42:26.970Z,90.13
2023-01-04T19:44:54.988Z,90.29
2023-01-04T19:47:23.018Z,90.26
2023-01-04T19:49:51.273Z,90.20
2023-01-04T19:52:19.354Z,90.36
2023-01-04T19:54:47.323Z,90.31
2023-01-04T19:57:15.829Z,90.35
2023-01-04T19:59:43.889Z,90.31
2023-01-04T20:02:12.325Z,90.59
2023-01-04T20:04:40.828Z,90.49
2023-01-04T20:07:09.026Z,90.65
2023-01-04T20:09:37.212Z,91.00
2023-01-04T20:12:05.681Z,91.28
2023-01-04T20:14:33.962Z,91.40
2023-01-04T20:17:02.011Z,91.34
2023-01-04T20:19:30.396Z,91.70
2023-01-04T20:21:58.388Z,92.02
2023-01-04T20:24:26.837Z,91.87
2023-01-04T20:26:55.247Z,91.97
2023-01-04T20:29:23.475Z,92.17
2023-01-04T20:31:51.689Z,92.34
2023-01-04T20:34:19.971Z,92.53
2023-01-04T20:36:48.053Z,92.36
2023-01-04T20:39:16.193Z,92.49
2023-01-04T20:42:04.233Z,92.51
2023-01-04T20:44:32.380Z,92.47
2023-01-04T20:47:01.933Z,92.64
2023-01-04T20:49:30.427Z,92.83
2023-01-04T20:51:58.695Z,93.00
2023-01-04T20:54:26.711Z,93.07
2023-01-04T20:56:54.844Z,92.89
2023-01-04T20:59:22.839Z,92.85
2023-01-04T21:01:50.920Z,93.12
2023-01-04T21:04:19.114Z,93.25
2023-01-04T21:06:47.222Z,93.47
2023-01-04T21:09:15.361Z,93.43
2023-01-04T21:11:44.286Z,93.25
2023-01-04T21:14:13.178Z,93.38
2023-01-04T21:16:42.017Z,93.44
2023-01-04T21:19:10.242Z,93.37
2023-01-04T21:21:38.482Z,93.88
2023-01-04T21:24:06.878Z,93.88
2023-01-04T21:26:35.099Z,94.15
2023-01-04T21:29:03.231Z,94.21
2023-01-04T21:31:31.371Z,94.14
2023-01-04T21:33:59.578Z,94.18
2023-01-04T21:36:28.733Z,94.15
2023-01-04T21:38:58.697Z,94.10
2023-01-04T21:41:27.358Z,94.24
2023-01-04T21:43:57.349Z,94.25
2023-01-04T21:46:26.840Z,94.09
2023-01-04T21:48:59.563Z,94.15
2023-01-04T21:51:30.708Z,94.27
2023-01-04T21:53:58.992Z,94.19
2023-01-04T21:56:27.702Z,94.19
2023-01-04T21:58:55.704Z,94.29
2023-01-04T22:01:30.979Z,94.22
2023-01-04T22:04:04.067Z,94.16
2023-01-04T22:06:34.168Z,94.29
2023-01-04T22:09:02.198Z,94.60
2023-01-04T22:11:30.485Z,94.22
2023-01-04T22:13:58.477Z,94.26
2023-01-04T22:16:26.670Z,94.17
2023-01-04T22:18:55.002Z,94.24
2023-01-04T22:21:26.729Z,94.21
2023-01-04T22:23:55.091Z,94.10
2023-01-04T22:26:24.159Z,93.96
2023-01-04T22:28:52.160Z,94.04
2023-01-04T22:31:20.183Z,93.90
2023-01-04T22:33:48.341Z,93.80
2023-01-04T22:36:23.030Z,93.76
2023-01-04T22:38:53.981Z,93.72
2023-01-04T22:41:25.829Z,93.68
2023-01-04T22:43:59.359Z,93.66
2023-01-04T22:46:29.095Z,93.49
2023-01-04T22:48:57.466Z,93.61
2023-01-04T22:51:29.214Z,93.55
2023-01-04T22:53:59.554Z,93.49
2023-01-04T22:56:28.709Z,93.37
2023-01-04T22:58:58.183Z,93.17
2023-01-04T23:01:29.500Z,93.08
2023-01-04T23:03:59.919Z,92.78
2023-01-04T23:06:29.515Z,92.72
2023-01-04T23:09:00.198Z,92.69
2023-01-04T23:11:30.419Z,92.72
2023-01-04T23:13:58.911Z,92.51
2023-01-04T23:16:32.355Z,92.66
2023-01-04T23:19:02.724Z,92.42
2023-01-04T23:21:32.595Z,92.48
2023-01-04T23:24:01.399Z,92.53
2023-01-04T23:26:31.449Z,92.36
2023-01-04T23:29:00.840Z,92.41
2023-01-04T23:31:31.121Z,92.17
2023-01-04T23:34:02.604Z,92.27
2023-01-04T23:36:36.356Z,92.05
2023-01-04T23:39:08.086Z,92.20
2023-01-04T23:41:45.265Z,92.10
2023-01-04T23:44:16.871Z,92.08
2023-01-04T23:46:45.568Z,92.10
2023-01-04T23:49:13.635Z,92.04
2023-01-04T23:51:42.754Z,92.09
2023-01-04T23:54:10.960Z,92.11
2023-01-04T23:56:39.168Z,92.14
2023-01-04T23:59:07.770Z,92.18
